Skip Navigation Links Skip Navigation Links

Current Weather

Osceola Municipal, Osceola, Iowa

For information only: do not use for flight planning or navigation.
Latest weather
Observation time Tuesday, October 19, 2021 3:55 AM CDT
Local time Tuesday, October 19, 2021 4:08 AM CDT
Flight conditions Visual Meteorological Conditions
Winds
Wind direction South-Southeast (150°)
Wind speed 8 mph
Visibility 10 mi.
Sky condition
Ceiling 12,000 ft. overcast
Cloud layer overcast 12,000 ft.
Temperature 53°F
Dewpoint 46°F
Altimeter 30.00 in.Hg
Derived measurements
Relative humidity 78%
Density altitude 792 ft.
Remarks
Fully automated report.
Automated weather observing station with precipitation discriminator.
METAR KI75 190855Z AUTO 15007KT 10SM OVC120 12/08 A3000 RMK AO2 T01180080

Settings

Location code

InnerDrive.Weather 4.0.6770.0 Release CLR 4.0.30319.42000
Copyright ©2018 Inner Drive Technology. All rights reserved. Portions Copyright ©1986-2018 David Braverman.

Find weather

Site navigation


Skip Navigation Links

Place info

Page info

PayPal - The safer, easier way to pay online!

Return home.

Copyright ©2021 Inner Drive Technology. Purveyors of fine, hand-crafted computer software. Page printed 2021-10-19T09:08:01 UTC.